Terminal Aerodrome Forecast
Issued by NWS

Home | Current Version | Previous Version | Text Only | Print | Product List | Glossary On
Versions: 1 2 3 4 5 6 7 8 9 10 11 12 13 14 15 16 17 18 19 20 21 22 23 24 25
000
FTUS41 KILN 040542
TAFLUK
TAF
KLUK 040542Z 0406/0506 00000KT P6SM SCT035 OVC150
     FM041200 09005KT P6SM OVC090
     FM041600 11008KT P6SM OVC050
     FM042000 14007KT 4SM -RA BR OVC028
     FM042200 14007KT 4SM -RA BR OVC018
     FM050000 17005KT 4SM -RA BR OVC009
     FM050300 25008KT P6SM OVC009=

USA.gov is the U.S. government's official web portal to all federal, state and local government web resources and services.